createdAt,value
2023-01-26T00:01:18.408Z,42.9
2023-01-26T00:06:19.093Z,42.7
2023-01-26T00:11:19.796Z,42.7
2023-01-26T00:16:20.271Z,42.7
2023-01-26T00:21:20.996Z,42.6
2023-01-26T00:26:21.636Z,42.6
2023-01-26T00:31:22.332Z,42.5
2023-01-26T00:36:22.870Z,42.4
2023-01-26T00:41:23.326Z,42.4
2023-01-26T00:46:24.037Z,42.3
2023-01-26T00:51:24.704Z,42.2
2023-01-26T00:56:25.116Z,42.2
2023-01-26T01:01:25.588Z,42.1
2023-01-26T01:06:26.040Z,42.1
2023-01-26T01:11:26.480Z,42
2023-01-26T01:16:26.946Z,42
2023-01-26T01:21:27.382Z,41.9
2023-01-26T01:26:27.791Z,41.9
2023-01-26T01:31:28.542Z,41.8
2023-01-26T01:36:29.005Z,41.7
2023-01-26T01:41:29.405Z,41.7
2023-01-26T01:46:30.076Z,41.6
2023-01-26T01:51:30.463Z,41.6
2023-01-26T01:56:31.111Z,41.5
2023-01-26T02:01:31.757Z,41.5
2023-01-26T02:06:32.116Z,41.4
2023-01-26T02:11:32.475Z,41.4
2023-01-26T02:16:33.194Z,41.3
2023-01-26T02:21:33.575Z,41.2
2023-01-26T02:26:33.939Z,41.2
2023-01-26T02:31:34.356Z,41.2
2023-01-26T02:36:34.744Z,41.1
2023-01-26T02:41:35.322Z,41.1
2023-01-26T02:46:35.746Z,41
2023-01-26T02:51:36.517Z,40.9
2023-01-26T02:56:37.170Z,40.9
2023-01-26T03:01:37.826Z,40.9
2023-01-26T03:06:38.249Z,40.8
2023-01-26T03:11:38.939Z,40.8
2023-01-26T03:16:39.349Z,40.7
2023-01-26T03:21:39.969Z,40.6
2023-01-26T03:26:40.649Z,40.6
2023-01-26T03:31:41.105Z,40.6
2023-01-26T03:36:41.755Z,40.5
2023-01-26T03:41:42.426Z,40.4
2023-01-26T03:46:43.065Z,40.4
2023-01-26T03:51:43.725Z,40.4
2023-01-26T03:56:44.350Z,40.3
2023-01-26T04:01:45.070Z,40.2
2023-01-26T04:06:45.710Z,40.2
2023-01-26T04:11:46.339Z,40.2
2023-01-26T04:16:46.739Z,40.1
2023-01-26T04:21:47.350Z,40.1
2023-01-26T04:26:47.711Z,40.1
2023-01-26T04:31:48.377Z,40
2023-01-26T04:36:48.775Z,39.9
2023-01-26T04:41:49.130Z,39.9
2023-01-26T04:46:49.497Z,39.8
2023-01-26T04:51:49.904Z,39.8
2023-01-26T04:56:50.552Z,39.7
2023-01-26T05:01:50.909Z,39.7
2023-01-26T05:06:51.474Z,39.7
2023-01-26T05:11:52.032Z,39.6
2023-01-26T05:16:52.414Z,39.6
2023-01-26T05:21:52.765Z,39.6
2023-01-26T05:26:53.101Z,39.5
2023-01-26T05:31:53.504Z,39.4
2023-01-26T05:36:53.893Z,39.4
2023-01-26T05:41:54.251Z,39.4
2023-01-26T05:46:54.590Z,39.3
2023-01-26T05:51:54.905Z,39.2
2023-01-26T05:56:55.354Z,39.2
2023-01-26T06:01:55.883Z,39.2
2023-01-26T06:06:56.353Z,39.2
2023-01-26T06:11:56.680Z,39.1
2023-01-26T06:16:57.092Z,39.1
2023-01-26T06:21:57.428Z,39.1
2023-01-26T06:26:57.788Z,39
2023-01-26T06:31:58.207Z,38.9
2023-01-26T06:36:58.845Z,38.9
2023-01-26T06:41:59.167Z,38.9
2023-01-26T06:46:59.501Z,38.8
2023-01-26T06:52:00.106Z,38.8
2023-01-26T06:57:00.714Z,38.7
2023-01-26T07:02:01.094Z,38.7
2023-01-26T07:07:01.450Z,38.7
2023-01-26T07:12:01.805Z,38.6
2023-01-26T07:17:02.407Z,38.6
2023-01-26T07:22:02.968Z,38.6
2023-01-26T07:27:03.340Z,38.6
2023-01-26T07:32:03.686Z,38.5
2023-01-26T07:37:04.290Z,38.4
2023-01-26T07:42:04.629Z,38.4
2023-01-26T07:47:04.957Z,38.4
2023-01-26T07:52:05.522Z,38.3
2023-01-26T07:57:06.112Z,38.3
2023-01-26T08:02:06.665Z,38.2
2023-01-26T08:07:06.994Z,38.2
2023-01-26T08:12:07.716Z,38.2
2023-01-26T08:17:08.052Z,38.2
2023-01-26T08:22:08.708Z,38.1
2023-01-26T08:27:09.249Z,38.1
2023-01-26T08:32:09.607Z,38.1
2023-01-26T08:37:10.199Z,38
2023-01-26T08:42:10.758Z,38
2023-01-26T08:47:11.039Z,37.9
2023-01-26T08:52:11.596Z,37.9
2023-01-26T08:57:11.869Z,37.9
2023-01-26T09:02:12.233Z,37.8
2023-01-26T09:07:13.506Z,37.8
2023-01-26T09:12:13.911Z,37.7
2023-01-26T09:17:14.202Z,37.7
2023-01-26T09:22:14.466Z,37.7
2023-01-26T09:27:14.720Z,37.7
2023-01-26T09:32:15.103Z,37.6
2023-01-26T09:37:15.618Z,37.6
2023-01-26T09:42:16.130Z,37.6
2023-01-26T09:47:16.622Z,37.5
2023-01-26T09:52:16.922Z,37.5
2023-01-26T09:57:17.176Z,37.4
2023-01-26T10:02:17.473Z,37.4
2023-01-26T10:07:17.721Z,37.4
2023-01-26T10:12:18.206Z,37.4
2023-01-26T10:17:18.432Z,37.3
2023-01-26T10:22:18.673Z,37.3
2023-01-26T10:27:18.969Z,37.2
2023-01-26T10:32:19.259Z,37.2
2023-01-26T10:37:19.732Z,37.2
2023-01-26T10:42:19.979Z,37.1
2023-01-26T10:47:20.182Z,37.1
2023-01-26T10:52:20.461Z,37.1
2023-01-26T10:57:20.678Z,37.1
2023-01-26T11:02:20.923Z,37.1
2023-01-26T11:07:21.164Z,37
2023-01-26T11:12:21.403Z,37
2023-01-26T11:17:21.667Z,36.9
2023-01-26T11:22:22.144Z,36.9
2023-01-26T11:27:22.463Z,36.9
2023-01-26T11:32:22.755Z,36.9
2023-01-26T11:37:23.002Z,36.8
2023-01-26T11:42:23.238Z,36.7
2023-01-26T11:47:23.526Z,36.7
2023-01-26T11:52:23.951Z,36.7
2023-01-26T11:57:24.205Z,36.7
2023-01-26T12:02:27.185Z,36.7
2023-01-26T12:07:27.782Z,36.6
2023-01-26T12:12:28.028Z,36.6
2023-01-26T12:17:28.287Z,36.6
2023-01-26T12:22:28.537Z,36.6
2023-01-26T12:27:28.815Z,36.5
2023-01-26T12:32:29.072Z,36.5
2023-01-26T12:37:29.546Z,36.4
2023-01-26T12:42:29.768Z,36.4
2023-01-26T12:47:30.108Z,36.4
2023-01-26T12:52:30.329Z,36.4
2023-01-26T12:57:30.557Z,36.3
2023-01-26T13:02:30.904Z,36.3
2023-01-26T13:07:31.223Z,36.2
2023-01-26T13:12:31.463Z,36.2
2023-01-26T13:17:31.904Z,36.2
2023-01-26T13:22:32.265Z,36.2
2023-01-26T13:27:33.122Z,36.1
2023-01-26T13:32:33.365Z,36.1
2023-01-26T13:37:34.276Z,36.1
2023-01-26T13:42:34.642Z,36.1
2023-01-26T13:47:34.951Z,36
2023-01-26T13:52:35.177Z,36
2023-01-26T13:57:35.707Z,36
2023-01-26T14:02:36.297Z,35.9
2023-01-26T14:07:36.656Z,35.9
2023-01-26T14:12:36.909Z,35.9
2023-01-26T14:17:37.511Z,35.8
2023-01-26T14:22:37.754Z,35.8
2023-01-26T14:27:38.372Z,35.7
2023-01-26T14:32:38.981Z,35.7
2023-01-26T14:37:39.223Z,35.7
2023-01-26T14:42:39.457Z,35.7
2023-01-26T14:47:39.913Z,35.7
2023-01-26T14:52:40.128Z,35.6
2023-01-26T14:57:40.613Z,35.1
2023-01-26T15:02:40.834Z,35
2023-01-26T15:07:41.094Z,35
2023-01-26T15:12:41.564Z,34.9
2023-01-26T15:17:42.018Z,34.9
2023-01-26T15:22:42.230Z,34.9
2023-01-26T15:27:42.790Z,34.9
2023-01-26T15:32:42.989Z,34.9
2023-01-26T15:37:43.413Z,34.9
2023-01-26T15:42:43.600Z,34.8
2023-01-26T15:47:44.047Z,34.8
2023-01-26T15:52:45.861Z,34.7
2023-01-26T15:57:46.057Z,34.7
2023-01-26T16:02:46.504Z,34.7
2023-01-26T16:07:47.194Z,34.7
2023-01-26T16:12:49.300Z,34.7
2023-01-26T16:17:51.445Z,34.7
2023-01-26T16:22:51.636Z,34.6
2023-01-26T16:27:51.812Z,34.6
2023-01-26T16:32:51.995Z,34.6
2023-01-26T16:37:52.192Z,34.6
2023-01-26T16:42:52.392Z,34.6
2023-01-26T16:47:52.697Z,34.5
2023-01-26T16:52:54.745Z,34.5
2023-01-26T16:57:55.249Z,34.4
2023-01-26T17:02:55.689Z,34.4
2023-01-26T17:07:55.890Z,34.4
2023-01-26T17:12:56.306Z,35.2
2023-01-26T17:17:56.862Z,37.7
2023-01-26T17:22:58.644Z,40.1
2023-01-26T17:28:02.631Z,41.2
2023-01-26T17:33:03.092Z,41.7
2023-01-26T17:38:03.750Z,42.3
2023-01-26T17:43:04.211Z,42.4
2023-01-26T17:48:04.661Z,42.4
2023-01-26T17:53:05.350Z,42.3
2023-01-26T17:58:06.881Z,42.7
2023-01-26T18:03:07.618Z,43.9
2023-01-26T18:08:08.153Z,44.2
2023-01-26T18:13:08.866Z,44.2
2023-01-26T18:18:09.731Z,44.2
2023-01-26T18:23:10.459Z,44.2
2023-01-26T18:28:13.922Z,44.2
2023-01-26T18:33:14.841Z,44.4
2023-01-26T18:38:15.385Z,45.2
2023-01-26T18:43:16.036Z,45.3
2023-01-26T18:48:16.580Z,45.3
2023-01-26T18:53:17.388Z,45.3
2023-01-26T18:58:18.194Z,45.2
2023-01-26T19:03:19.909Z,45.2
2023-01-26T19:08:20.747Z,45.2
2023-01-26T19:13:21.351Z,45.2
2023-01-26T19:18:22.568Z,45.1
2023-01-26T19:23:23.425Z,45.1
2023-01-26T19:28:24.278Z,45.1
2023-01-26T19:33:25.043Z,45.1
2023-01-26T19:38:25.898Z,45
2023-01-26T19:43:26.470Z,45
2023-01-26T19:48:27.211Z,44.7
2023-01-26T19:53:27.967Z,44.7
2023-01-26T19:58:28.707Z,44.6
2023-01-26T20:03:29.484Z,44.6
2023-01-26T20:08:30.235Z,44.6
2023-01-26T20:13:30.972Z,44.5
2023-01-26T20:18:31.817Z,44.4
2023-01-26T20:23:32.547Z,44.4
2023-01-26T20:28:33.252Z,44.3
2023-01-26T20:33:33.994Z,43.1
2023-01-26T20:38:34.851Z,40.1
2023-01-26T20:43:35.947Z,39.5
2023-01-26T20:48:36.400Z,39.2
2023-01-26T20:53:36.983Z,39.1
2023-01-26T20:58:37.544Z,38.8
2023-01-26T21:03:38.142Z,38.6
2023-01-26T21:08:38.713Z,38.5
2023-01-26T21:13:39.308Z,38.4
2023-01-26T21:18:39.742Z,38.3
2023-01-26T21:23:40.140Z,38.2
2023-01-26T21:28:40.491Z,38.1
2023-01-26T21:33:40.789Z,38.1
2023-01-26T21:38:41.322Z,38
2023-01-26T21:43:41.835Z,37.9
2023-01-26T21:48:42.335Z,37.8
2023-01-26T21:53:42.843Z,37.7
2023-01-26T21:58:43.390Z,37.7
2023-01-26T22:03:43.897Z,37.6
2023-01-26T22:08:44.148Z,37.6
2023-01-26T22:13:44.674Z,37.4
2023-01-26T22:18:45.179Z,37.4
2023-01-26T22:23:45.476Z,37.3
2023-01-26T22:28:45.737Z,37.2
2023-01-26T22:33:46.253Z,37.2
2023-01-26T22:38:46.762Z,37.2
2023-01-26T22:43:47.053Z,37.1
2023-01-26T22:48:47.544Z,37.1
2023-01-26T22:53:47.792Z,37
2023-01-26T22:58:57.355Z,36.9
2023-01-26T23:03:58.485Z,36.9
2023-01-26T23:08:58.854Z,36.8
2023-01-26T23:13:59.390Z,36.7
2023-01-26T23:18:59.910Z,36.7
2023-01-26T23:24:00.289Z,36.7
2023-01-26T23:29:00.595Z,36.6
2023-01-26T23:34:01.093Z,36.6
2023-01-26T23:39:01.383Z,36.5
2023-01-26T23:44:01.905Z,36.5
2023-01-26T23:49:02.379Z,36.4
2023-01-26T23:54:02.651Z,36.4
2023-01-26T23:59:02.901Z,36.3
